Time;durP1;ratioP1;P1;durP2;ratioP2;P2;SDS_P1;SDS_P2;PMS_P1;PMS_P2;Temp;Humidity;BMP_temperature;BMP_pressure;BME280_temperature;BME280_humidity;BME280_pressure;Samples;Min_cycle;Max_cycle;Signal;HPM_P1;HPM_P2
2021/06/20 00:00:09;;;;;;;1.00;1.00;;;;;;;;;;5071722;28;20605;-86
2021/06/20 00:02:37;;;;;;;1.42;1.33;;;;;;;;;;5071771;28;20233;-86
2021/06/20 00:05:06;;;;;;;1.20;1.10;;;;;;;;;;5071768;28;20538;-86
2021/06/20 00:07:34;;;;;;;1.45;1.35;;;;;;;;;;5071615;28;20201;-86
2021/06/20 00:10:03;;;;;;;1.15;1.15;;;;;;;;;;5071587;28;20241;-86
2021/06/20 00:12:30;;;;;;;1.10;1.10;;;;;;;;;;5071868;28;20756;-87
2021/06/20 00:14:58;;;;;;;1.25;1.15;;;;;;;;;;5071620;28;20208;-87
2021/06/20 00:17:25;;;;;;;1.13;1.13;;;;;;;;;;5071558;28;20201;-87
2021/06/20 00:19:53;;;;;;;2.15;1.60;;;;;;;;;;5071672;28;20235;-86
2021/06/20 00:22:20;;;;;;;1.38;1.27;;;;;;;;;;5071242;28;20307;-87
2021/06/20 00:24:48;;;;;;;1.67;1.58;;;;;;;;;;5071692;28;20272;-86
2021/06/20 00:27:16;;;;;;;1.58;1.40;;;;;;;;;;5071793;28;20189;-86
2021/06/20 00:29:44;;;;;;;1.67;1.58;;;;;;;;;;5071301;28;20221;-87
2021/06/20 00:32:11;;;;;;;1.55;1.45;;;;;;;;;;5071294;28;20557;-87
2021/06/20 00:34:39;;;;;;;2.05;1.60;;;;;;;;;;5070971;28;20651;-86
2021/06/20 00:37:06;;;;;;;1.50;1.40;;;;;;;;;;5071159;28;20552;-86
2021/06/20 00:39:34;;;;;;;3.08;2.50;;;;;;;;;;5071453;28;20233;-87
2021/06/20 00:42:01;;;;;;;3.17;2.90;;;;;;;;;;5071382;28;20315;-88
2021/06/20 00:44:30;;;;;;;4.32;3.17;;;;;;;;;;5071134;28;20207;-87
2021/06/20 00:46:57;;;;;;;2.72;2.53;;;;;;;;;;5070836;28;20208;-87
2021/06/20 00:49:25;;;;;;;2.80;2.60;;;;;;;;;;5070790;28;20220;-87
2021/06/20 00:51:52;;;;;;;2.50;2.40;;;;;;;;;;5070649;28;20203;-87
2021/06/20 00:54:19;;;;;;;2.58;2.40;;;;;;;;;;5070580;28;20181;-87
2021/06/20 00:56:48;;;;;;;2.80;2.60;;;;;;;;;;5070549;28;20211;-87
2021/06/20 00:59:15;;;;;;;2.88;2.33;;;;;;;;;;5070654;28;20221;-86
2021/06/20 01:01:45;;;;;;;2.65;2.45;;;;;;;;;;5070784;28;20598;-87
2021/06/20 01:04:12;;;;;;;3.28;3.00;;;;;;;;;;5070388;28;20205;-88
2021/06/20 01:06:39;;;;;;;2.63;2.53;;;;;;;;;;5070470;28;20209;-88
2021/06/20 01:09:07;;;;;;;3.17;2.88;;;;;;;;;;5070342;28;20216;-87
2021/06/20 01:11:35;;;;;;;2.67;2.47;;;;;;;;;;5069931;28;20205;-87
2021/06/20 01:14:04;;;;;;;2.72;2.53;;;;;;;;;;5070574;28;20201;-86
2021/06/20 01:16:33;;;;;;;2.42;2.22;;;;;;;;;;5070687;28;20204;-88
2021/06/20 01:19:01;;;;;;;4.80;2.60;;;;;;;;;;5070741;28;20220;-88
2021/06/20 01:21:29;;;;;;;3.22;2.95;;;;;;;;;;5070333;28;20644;-87
2021/06/20 01:23:57;;;;;;;2.55;2.45;;;;;;;;;;5070320;28;20224;-87
2021/06/20 01:26:25;;;;;;;2.30;2.20;;;;;;;;;;5070626;28;20641;-87
2021/06/20 01:29:02;;;;;;;2.88;2.63;;;;;;;;;;5070416;28;20309;-88
2021/06/20 01:31:31;;;;;;;2.60;2.40;;;;;;;;;;5070806;28;20288;-87
2021/06/20 01:33:59;;;;;;;3.08;2.88;;;;;;;;;;5069953;28;20639;-87
2021/06/20 01:36:26;;;;;;;2.33;2.13;;;;;;;;;;5070057;28;20473;-88
2021/06/20 01:38:54;;;;;;;2.28;2.10;;;;;;;;;;5069760;28;20615;-87
2021/06/20 01:41:22;;;;;;;1.90;1.80;;;;;;;;;;5069964;28;20196;-87
2021/06/20 01:43:50;;;;;;;1.88;1.77;;;;;;;;;;5070029;28;20312;-87
2021/06/20 01:46:17;;;;;;;1.60;1.50;;;;;;;;;;5070037;28;20212;-87
2021/06/20 01:48:45;;;;;;;2.20;2.00;;;;;;;;;;5070436;28;20223;-87
2021/06/20 01:51:12;;;;;;;2.42;2.22;;;;;;;;;;5069949;28;20215;-86
2021/06/20 01:53:40;;;;;;;1.50;1.40;;;;;;;;;;5069398;28;20216;-87
2021/06/20 01:56:07;;;;;;;1.73;1.60;;;;;;;;;;5069833;28;20182;-87
2021/06/20 01:58:36;;;;;;;3.03;2.30;;;;;;;;;;5070037;28;20702;-87
2021/06/20 02:01:18;;;;;;;2.55;2.05;;;;;;;;;;5069815;28;20296;-87
2021/06/20 02:03:56;;;;;;;3.00;2.22;;;;;;;;;;5071458;28;20231;-87
2021/06/20 02:06:24;;;;;;;3.22;3.03;;;;;;;;;;5071592;28;20279;-88
2021/06/20 02:08:51;;;;;;;2.90;2.70;;;;;;;;;;5072070;28;20718;-88
2021/06/20 02:11:19;;;;;;;4.63;3.38;;;;;;;;;;5072093;28;20193;-87
2021/06/20 02:13:47;;;;;;;3.97;3.58;;;;;;;;;;5072016;28;20201;-86
2021/06/20 02:16:15;;;;;;;6.45;3.83;;;;;;;;;;5072054;28;20292;-86
2021/06/20 02:18:42;;;;;;;3.70;3.40;;;;;;;;;;5071835;28;20217;-85
2021/06/20 02:21:10;;;;;;;3.78;3.30;;;;;;;;;;5071827;28;20685;-85
2021/06/20 02:23:37;;;;;;;4.78;2.95;;;;;;;;;;5072113;28;20228;-86
2021/06/20 02:26:04;;;;;;;4.10;3.30;;;;;;;;;;5072501;28;20293;-85
2021/06/20 02:28:32;;;;;;;3.33;3.00;;;;;;;;;;5071596;28;20228;-85
2021/06/20 02:31:00;;;;;;;4.43;3.70;;;;;;;;;;5072627;28;20201;-85
2021/06/20 02:33:28;;;;;;;3.35;3.05;;;;;;;;;;5072186;28;20208;-86
2021/06/20 02:35:55;;;;;;;3.05;2.85;;;;;;;;;;5072087;28;20190;-85
2021/06/20 02:38:23;;;;;;;2.85;2.40;;;;;;;;;;5071865;28;20201;-85
2021/06/20 02:40:50;;;;;;;3.00;2.72;;;;;;;;;;5072433;28;20575;-85
2021/06/20 02:43:17;;;;;;;5.85;3.72;;;;;;;;;;5071915;28;20221;-85
2021/06/20 02:45:45;;;;;;;2.67;2.28;;;;;;;;;;5072004;28;20205;-86
2021/06/20 02:48:13;;;;;;;2.55;2.35;;;;;;;;;;5071479;28;20212;-85
2021/06/20 02:50:41;;;;;;;3.05;2.40;;;;;;;;;;5071995;28;20679;-86
2021/06/20 02:53:09;;;;;;;2.42;2.22;;;;;;;;;;5072301;28;20570;-85
2021/06/20 02:55:36;;;;;;;5.15;3.45;;;;;;;;;;5071615;28;20284;-86
2021/06/20 02:58:04;;;;;;;3.60;3.20;;;;;;;;;;5071896;28;20201;-88
2021/06/20 03:00:31;;;;;;;4.25;3.47;;;;;;;;;;5072948;28;20221;-87
2021/06/20 03:02:58;;;;;;;3.53;2.47;;;;;;;;;;5070203;28;20724;-88
2021/06/20 03:05:27;;;;;;;3.58;2.92;;;;;;;;;;5070079;28;20276;-88
2021/06/20 03:07:55;;;;;;;4.75;3.00;;;;;;;;;;5069828;28;20192;-88
2021/06/20 03:10:22;;;;;;;1.80;1.60;;;;;;;;;;5069916;28;20588;-88
2021/06/20 03:12:50;;;;;;;3.67;2.45;;;;;;;;;;5070582;28;20199;-88
2021/06/20 03:15:17;;;;;;;3.83;2.70;;;;;;;;;;5072846;28;20205;-87
2021/06/20 03:17:44;;;;;;;3.80;2.95;;;;;;;;;;5073037;28;20231;-86
2021/06/20 03:20:14;;;;;;;4.20;3.10;;;;;;;;;;5072820;28;20563;-85
2021/06/20 03:22:42;;;;;;;7.90;3.75;;;;;;;;;;5072540;28;20598;-86
2021/06/20 03:25:11;;;;;;;5.60;3.80;;;;;;;;;;5072677;28;20216;-86
2021/06/20 03:27:39;;;;;;;5.65;3.72;;;;;;;;;;5072568;28;20220;-86
2021/06/20 03:30:08;;;;;;;4.68;3.15;;;;;;;;;;5072389;28;20240;-86
2021/06/20 03:32:36;;;;;;;4.22;2.70;;;;;;;;;;5072268;28;20602;-86
2021/06/20 03:35:03;;;;;;;6.38;3.45;;;;;;;;;;5073143;28;20203;-86
2021/06/20 03:37:31;;;;;;;4.00;3.22;;;;;;;;;;5072799;28;20192;-86
2021/06/20 03:39:59;;;;;;;6.38;3.47;;;;;;;;;;5072537;28;20225;-86
2021/06/20 03:42:27;;;;;;;4.88;3.83;;;;;;;;;;5072300;28;20193;-86
2021/06/20 03:44:54;;;;;;;4.30;2.47;;;;;;;;;;5072096;28;20602;-86
2021/06/20 03:47:23;;;;;;;6.43;3.45;;;;;;;;;;5071924;28;20201;-85
2021/06/20 03:49:50;;;;;;;4.13;2.55;;;;;;;;;;5071870;28;20773;-86
2021/06/20 03:52:17;;;;;;;6.07;2.67;;;;;;;;;;5072210;28;20220;-86
2021/06/20 03:54:49;;;;;;;2.08;1.60;;;;;;;;;;5072029;28;20204;-87
2021/06/20 03:57:19;;;;;;;2.95;2.10;;;;;;;;;;5072261;28;20192;-86
2021/06/20 03:59:47;;;;;;;2.63;2.15;;;;;;;;;;5071745;28;20224;-86
2021/06/20 04:02:14;;;;;;;2.67;2.30;;;;;;;;;;5071737;28;20209;-86
2021/06/20 04:04:42;;;;;;;2.03;1.80;;;;;;;;;;5071864;28;20205;-86
2021/06/20 04:07:12;;;;;;;2.17;1.73;;;;;;;;;;5071975;28;20286;-87
2021/06/20 04:09:39;;;;;;;2.17;1.98;;;;;;;;;;5071530;28;20277;-86
2021/06/20 04:12:10;;;;;;;4.70;2.10;;;;;;;;;;5071686;28;20201;-86
2021/06/20 04:14:39;;;;;;;2.85;1.95;;;;;;;;;;5071611;28;20177;-86
2021/06/20 04:17:07;;;;;;;3.00;2.03;;;;;;;;;;5070981;28;20197;-85
2021/06/20 04:19:35;;;;;;;3.30;1.90;;;;;;;;;;5071679;28;20217;-86
2021/06/20 04:22:04;;;;;;;2.08;1.92;;;;;;;;;;5071979;28;20192;-85
2021/06/20 04:24:31;;;;;;;2.83;1.88;;;;;;;;;;5071007;28;20225;-85
2021/06/20 04:26:59;;;;;;;3.47;2.15;;;;;;;;;;5071743;28;20211;-85
2021/06/20 04:29:26;;;;;;;3.33;1.90;;;;;;;;;;5071381;28;20221;-86
2021/06/20 04:31:55;;;;;;;4.88;2.13;;;;;;;;;;5071747;28;20191;-86
2021/06/20 04:34:23;;;;;;;2.58;2.28;;;;;;;;;;5071524;28;20197;-86
2021/06/20 04:36:50;;;;;;;3.13;2.80;;;;;;;;;;5071445;28;20205;-86
2021/06/20 04:39:18;;;;;;;3.58;2.40;;;;;;;;;;5071265;28;20335;-86
2021/06/20 04:41:45;;;;;;;4.40;2.22;;;;;;;;;;5071396;28;20185;-86
2021/06/20 04:46:59;;;;;;;2.83;2.40;;;;;;;;;;5071064;28;20209;-86
2021/06/20 04:49:26;;;;;;;3.30;2.33;;;;;;;;;;5070896;28;20725;-86
2021/06/20 04:51:53;;;;;;;2.83;2.63;;;;;;;;;;5070926;28;20207;-86
2021/06/20 04:54:21;;;;;;;2.88;2.33;;;;;;;;;;5070965;28;20201;-87
2021/06/20 04:56:48;;;;;;;3.92;2.25;;;;;;;;;;5070732;28;20662;-87
2021/06/20 04:59:16;;;;;;;2.95;2.55;;;;;;;;;;5070628;28;20221;-86
2021/06/20 05:01:43;;;;;;;2.20;1.52;;;;;;;;;;5070948;28;20203;-86
2021/06/20 05:04:12;;;;;;;2.75;2.30;;;;;;;;;;5070315;28;20589;-86
2021/06/20 05:06:40;;;;;;;2.65;2.45;;;;;;;;;;5070598;28;20204;-86
2021/06/20 05:09:07;;;;;;;2.65;2.30;;;;;;;;;;5070366;28;20266;-86
2021/06/20 05:11:35;;;;;;;2.90;2.20;;;;;;;;;;5070063;28;20208;-85
2021/06/20 05:14:02;;;;;;;5.68;2.88;;;;;;;;;;5070437;28;20201;-86
2021/06/20 05:16:30;;;;;;;3.55;2.50;;;;;;;;;;5070415;28;20185;-86
2021/06/20 05:18:57;;;;;;;4.72;2.60;;;;;;;;;;5070195;28;20229;-86
2021/06/20 05:21:33;;;;;;;3.60;3.20;;;;;;;;;;5070451;28;20204;-86
2021/06/20 05:24:00;;;;;;;6.07;3.00;;;;;;;;;;5070440;28;20238;-86
2021/06/20 05:26:28;;;;;;;2.92;2.63;;;;;;;;;;5070494;28;20193;-86
2021/06/20 05:28:55;;;;;;;2.80;2.60;;;;;;;;;;5070212;28;20224;-86
2021/06/20 05:31:22;;;;;;;3.28;2.92;;;;;;;;;;5069948;28;20216;-85
2021/06/20 05:33:50;;;;;;;3.28;2.35;;;;;;;;;;5070058;28;20208;-86
2021/06/20 05:36:17;;;;;;;4.90;2.80;;;;;;;;;;5069761;28;20593;-86
2021/06/20 05:38:46;;;;;;;2.55;2.33;;;;;;;;;;5070063;28;20220;-86
2021/06/20 05:41:14;;;;;;;3.03;2.70;;;;;;;;;;5069890;28;20576;-86
2021/06/20 05:43:42;;;;;;;3.35;3.05;;;;;;;;;;5070242;28;20193;-86
2021/06/20 05:46:09;;;;;;;3.25;2.15;;;;;;;;;;5069913;28;20227;-87
2021/06/20 05:48:37;;;;;;;3.42;2.40;;;;;;;;;;5069413;28;20224;-88
2021/06/20 05:51:04;;;;;;;2.83;2.50;;;;;;;;;;5069912;28;20201;-87
2021/06/20 05:53:32;;;;;;;2.60;2.40;;;;;;;;;;5070010;28;20204;-87
2021/06/20 05:56:01;;;;;;;3.60;3.20;;;;;;;;;;5070041;28;20570;-87
2021/06/20 05:58:28;;;;;;;4.45;2.42;;;;;;;;;;5069779;28;20711;-87
2021/06/20 06:00:55;;;;;;;2.67;2.47;;;;;;;;;;5069638;28;20640;-87
2021/06/20 06:03:23;;;;;;;3.20;2.47;;;;;;;;;;5069901;28;20292;-86
2021/06/20 06:05:50;;;;;;;3.28;2.90;;;;;;;;;;5069759;28;20686;-87
2021/06/20 06:08:18;;;;;;;3.35;2.30;;;;;;;;;;5069621;28;20224;-87
2021/06/20 06:10:45;;;;;;;2.88;2.10;;;;;;;;;;5069808;28;20559;-87
2021/06/20 06:13:14;;;;;;;2.30;2.00;;;;;;;;;;5069489;28;20190;-87
2021/06/20 06:15:42;;;;;;;4.50;2.80;;;;;;;;;;5069647;28;20193;-86
2021/06/20 06:18:09;;;;;;;5.10;2.25;;;;;;;;;;5069601;28;20205;-87
2021/06/20 06:20:36;;;;;;;3.17;2.40;;;;;;;;;;5069875;28;20207;-87
2021/06/20 06:23:05;;;;;;;6.03;3.08;;;;;;;;;;5070141;28;20195;-86
2021/06/20 06:25:33;;;;;;;3.13;2.80;;;;;;;;;;5069812;28;20295;-87
2021/06/20 06:28:01;;;;;;;5.13;2.53;;;;;;;;;;5069655;28;20535;-86
2021/06/20 06:30:30;;;;;;;4.72;2.83;;;;;;;;;;5070159;28;20634;-87
2021/06/20 06:32:58;;;;;;;3.03;2.58;;;;;;;;;;5069793;28;20201;-87
2021/06/20 06:35:25;;;;;;;3.13;2.10;;;;;;;;;;5070179;28;20565;-87
2021/06/20 06:37:53;;;;;;;2.85;2.55;;;;;;;;;;5069602;28;20204;-87
2021/06/20 06:40:20;;;;;;;3.22;2.40;;;;;;;;;;5069570;28;20217;-86
2021/06/20 06:42:48;;;;;;;3.05;2.50;;;;;;;;;;5069921;28;20196;-87
2021/06/20 06:45:17;;;;;;;4.07;2.80;;;;;;;;;;5070771;28;20224;-87
2021/06/20 06:47:46;;;;;;;4.47;3.05;;;;;;;;;;5071691;28;20678;-87
2021/06/20 06:50:14;;;;;;;3.50;2.95;;;;;;;;;;5073802;28;20224;-86
2021/06/20 06:52:41;;;;;;;4.25;2.53;;;;;;;;;;5074438;28;20197;-86
2021/06/20 06:55:10;;;;;;;3.10;2.40;;;;;;;;;;5073608;28;20663;-86
2021/06/20 06:57:38;;;;;;;3.20;2.58;;;;;;;;;;5073616;28;20272;-86
2021/06/20 07:00:08;;;;;;;3.28;2.22;;;;;;;;;;5073696;28;20236;-86
2021/06/20 07:02:36;;;;;;;2.50;2.15;;;;;;;;;;5073553;28;20197;-86
2021/06/20 07:05:06;;;;;;;3.17;2.17;;;;;;;;;;5073145;28;20701;-87
2021/06/20 07:07:34;;;;;;;4.43;2.35;;;;;;;;;;5072920;28;20497;-85
2021/06/20 07:10:02;;;;;;;5.53;4.18;;;;;;;;;;5072545;28;20259;-86
2021/06/20 07:12:30;;;;;;;2.90;2.70;;;;;;;;;;5073046;28;20229;-85
2021/06/20 07:14:58;;;;;;;3.80;2.78;;;;;;;;;;5073078;28;20220;-86
2021/06/20 07:17:25;;;;;;;5.25;3.60;;;;;;;;;;5073186;28;20208;-85
2021/06/20 07:19:53;;;;;;;2.55;2.35;;;;;;;;;;5072684;28;20592;-85
2021/06/20 07:22:22;;;;;;;2.88;2.55;;;;;;;;;;5073150;28;20200;-86
2021/06/20 07:24:49;;;;;;;2.25;2.13;;;;;;;;;;5072914;28;20207;-86
2021/06/20 07:27:17;;;;;;;2.53;2.13;;;;;;;;;;5073126;28;20217;-86
2021/06/20 07:29:46;;;;;;;2.72;2.42;;;;;;;;;;5072742;28;20217;-86
2021/06/20 07:32:13;;;;;;;3.20;2.70;;;;;;;;;;5073383;28;20182;-85
2021/06/20 07:34:41;;;;;;;3.97;2.60;;;;;;;;;;5073607;28;20185;-85
2021/06/20 07:37:08;;;;;;;2.88;2.40;;;;;;;;;;5072868;28;20201;-85
2021/06/20 07:39:37;;;;;;;2.80;2.60;;;;;;;;;;5073568;28;20591;-85
2021/06/20 07:42:05;;;;;;;2.28;2.00;;;;;;;;;;5073312;28;20197;-85
2021/06/20 07:44:32;;;;;;;2.95;2.15;;;;;;;;;;5073135;28;20203;-85
2021/06/20 07:47:00;;;;;;;2.67;2.47;;;;;;;;;;5073760;28;20221;-86
2021/06/20 07:49:27;;;;;;;2.85;2.33;;;;;;;;;;5072603;28;20220;-85
2021/06/20 07:51:54;;;;;;;4.22;2.63;;;;;;;;;;5073032;28;20200;-85
2021/06/20 07:54:22;;;;;;;2.92;1.85;;;;;;;;;;5073158;28;20705;-85
2021/06/20 07:56:51;;;;;;;2.67;2.47;;;;;;;;;;5073382;28;20189;-85
2021/06/20 07:59:19;;;;;;;3.28;1.98;;;;;;;;;;5071314;28;20221;-85
2021/06/20 08:01:46;;;;;;;2.50;2.30;;;;;;;;;;5072869;28;20235;-85
2021/06/20 08:04:14;;;;;;;4.72;3.63;;;;;;;;;;5072190;28;20201;-86
2021/06/20 08:06:41;;;;;;;2.80;2.60;;;;;;;;;;5072486;28;20209;-85
2021/06/20 08:09:09;;;;;;;1.80;1.70;;;;;;;;;;5071927;28;20220;-85
2021/06/20 08:11:36;;;;;;;2.30;2.10;;;;;;;;;;5072031;28;20207;-85
2021/06/20 08:14:05;;;;;;;2.63;2.42;;;;;;;;;;5071990;28;20200;-86
2021/06/20 08:16:33;;;;;;;2.10;1.90;;;;;;;;;;5071883;28;20622;-87
2021/06/20 08:19:00;;;;;;;3.33;3.03;;;;;;;;;;5071726;28;20221;-86
2021/06/20 08:21:28;;;;;;;1.77;1.67;;;;;;;;;;5071356;28;20291;-86
2021/06/20 08:23:55;;;;;;;2.30;2.10;;;;;;;;;;5071757;28;20201;-87
2021/06/20 08:26:23;;;;;;;2.03;1.92;;;;;;;;;;5071266;28;20687;-86
2021/06/20 08:28:50;;;;;;;5.10;2.88;;;;;;;;;;5071450;28;20228;-87
2021/06/20 08:31:19;;;;;;;1.98;1.88;;;;;;;;;;5071632;28;20576;-86
2021/06/20 08:33:46;;;;;;;2.15;1.95;;;;;;;;;;5071432;28;20199;-86
2021/06/20 08:36:14;;;;;;;2.30;2.00;;;;;;;;;;5071448;28;20636;-86
2021/06/20 08:38:42;;;;;;;1.80;1.70;;;;;;;;;;5071184;28;20691;-86
2021/06/20 08:41:12;;;;;;;2.80;2.60;;;;;;;;;;5071217;28;20227;-86
2021/06/20 08:43:39;;;;;;;2.03;1.92;;;;;;;;;;5071068;28;20192;-87
2021/06/20 08:46:07;;;;;;;2.40;2.00;;;;;;;;;;5071421;28;20205;-86
2021/06/20 08:48:36;;;;;;;3.20;2.28;;;;;;;;;;5070959;28;20227;-86
2021/06/20 08:51:04;;;;;;;1.80;1.70;;;;;;;;;;5071185;28;20596;-86
2021/06/20 08:53:32;;;;;;;2.25;2.05;;;;;;;;;;5071227;28;20187;-87
2021/06/20 08:56:00;;;;;;;2.25;2.10;;;;;;;;;;5070877;28;20691;-86
2021/06/20 08:58:31;;;;;;;1.85;1.70;;;;;;;;;;5070839;28;20211;-86
2021/06/20 09:01:01;;;;;;;2.35;2.15;;;;;;;;;;5071287;28;20197;-86
2021/06/20 09:03:40;;;;;;;1.70;1.60;;;;;;;;;;5071074;28;20201;-87
2021/06/20 09:06:16;;;;;;;2.08;1.88;;;;;;;;;;5070364;28;20553;-85
2021/06/20 09:08:47;;;;;;;3.00;2.08;;;;;;;;;;5070712;28;20231;-86
2021/06/20 09:11:28;;;;;;;3.42;2.58;;;;;;;;;;5070599;28;20193;-86
2021/06/20 09:14:05;;;;;;;2.38;1.98;;;;;;;;;;5071185;28;20291;-85
2021/06/20 09:16:34;;;;;;;2.00;1.80;;;;;;;;;;5072581;28;20466;-86
2021/06/20 09:19:03;;;;;;;5.03;2.72;;;;;;;;;;5071943;28;20221;-86
2021/06/20 09:21:30;;;;;;;2.17;1.98;;;;;;;;;;5071635;28;20279;-86
2021/06/20 09:24:01;;;;;;;2.30;1.90;;;;;;;;;;5072295;28;20212;-87
2021/06/20 09:26:41;;;;;;;1.98;1.77;;;;;;;;;;5070556;28;20184;-86
2021/06/20 09:29:10;;;;;;;1.95;1.85;;;;;;;;;;5072065;28;20231;-86
2021/06/20 09:31:52;;;;;;;4.40;2.13;;;;;;;;;;5072845;28;20639;-87
2021/06/20 09:34:21;;;;;;;2.75;1.90;;;;;;;;;;5071470;28;20222;-87
2021/06/20 09:36:59;;;;;;;1.95;1.85;;;;;;;;;;5072286;28;20178;-86
2021/06/20 09:39:27;;;;;;;2.20;2.00;;;;;;;;;;5074391;28;20227;-86
2021/06/20 09:42:04;;;;;;;1.85;1.75;;;;;;;;;;5073575;28;20189;-86
2021/06/20 09:44:40;;;;;;;2.53;2.30;;;;;;;;;;5074203;28;20211;-86
2021/06/20 09:47:10;;;;;;;2.65;1.80;;;;;;;;;;5074555;28;20231;-86
2021/06/20 09:49:39;;;;;;;3.17;2.03;;;;;;;;;;5072934;28;20626;-86
2021/06/20 09:52:07;;;;;;;2.25;1.60;;;;;;;;;;5073614;28;20240;-86
2021/06/20 09:54:37;;;;;;;2.05;1.70;;;;;;;;;;5071691;28;20696;-85
2021/06/20 09:57:14;;;;;;;1.40;1.30;;;;;;;;;;5072240;28;20205;-86
2021/06/20 09:59:42;;;;;;;1.90;1.40;;;;;;;;;;5071789;28;20710;-86
2021/06/20 10:02:11;;;;;;;1.90;1.70;;;;;;;;;;5071430;28;20632;-86
2021/06/20 10:04:42;;;;;;;2.95;2.25;;;;;;;;;;5070963;28;20201;-86
2021/06/20 10:07:11;;;;;;;1.65;1.55;;;;;;;;;;5071341;28;20699;-86
2021/06/20 10:09:39;;;;;;;1.73;1.60;;;;;;;;;;5071398;28;20707;-86
2021/06/20 10:12:09;;;;;;;1.52;1.42;;;;;;;;;;5071471;28;20205;-86
2021/06/20 10:14:43;;;;;;;4.10;2.00;;;;;;;;;;5071401;28;20204;-86
2021/06/20 10:17:14;;;;;;;1.70;1.55;;;;;;;;;;5071615;28;20181;-86
2021/06/20 10:19:50;;;;;;;1.90;1.80;;;;;;;;;;5071159;28;20220;-87
2021/06/20 10:22:19;;;;;;;1.50;1.40;;;;;;;;;;5070490;28;20712;-86
2021/06/20 10:24:48;;;;;;;1.60;1.50;;;;;;;;;;5071477;28;20189;-85
2021/06/20 10:27:27;;;;;;;1.58;1.48;;;;;;;;;;5071632;28;20212;-85
2021/06/20 10:29:56;;;;;;;2.53;1.85;;;;;;;;;;5071916;28;20670;-85
2021/06/20 10:32:26;;;;;;;1.55;1.45;;;;;;;;;;5072093;28;20350;-85
2021/06/20 10:34:58;;;;;;;1.52;1.42;;;;;;;;;;5071523;28;20185;-85
2021/06/20 10:37:31;;;;;;;1.77;1.67;;;;;;;;;;5071526;28;20197;-85
2021/06/20 10:40:00;;;;;;;1.60;1.30;;;;;;;;;;5071412;28;20224;-86
2021/06/20 10:42:37;;;;;;;1.10;1.10;;;;;;;;;;5071832;28;20189;-85
2021/06/20 10:45:07;;;;;;;1.13;1.13;;;;;;;;;;5071440;28;20341;-86
2021/06/20 10:47:38;;;;;;;1.30;1.20;;;;;;;;;;5071126;28;20205;-86
2021/06/20 10:50:11;;;;;;;1.33;1.25;;;;;;;;;;5071269;28;20229;-85
2021/06/20 10:52:40;;;;;;;1.38;1.35;;;;;;;;;;5071519;28;20182;-86
2021/06/20 10:55:14;;;;;;;1.60;1.50;;;;;;;;;;5071655;28;20284;-85
2021/06/20 10:57:48;;;;;;;1.02;1.02;;;;;;;;;;5071075;28;20284;-87
2021/06/20 11:00:28;;;;;;;2.15;1.50;;;;;;;;;;5071088;28;20227;-86
2021/06/20 11:03:06;;;;;;;1.50;1.40;;;;;;;;;;5070723;28;20173;-86
2021/06/20 11:05:54;;;;;;;1.25;1.23;;;;;;;;;;5070818;28;20208;-86
2021/06/20 11:08:35;;;;;;;1.73;1.63;;;;;;;;;;5070244;28;20229;-86
2021/06/20 11:11:08;;;;;;;1.00;1.00;;;;;;;;;;5070428;28;20204;-87
2021/06/20 11:13:36;;;;;;;1.50;1.40;;;;;;;;;;5070189;28;20219;-86
2021/06/20 11:16:06;;;;;;;1.90;1.40;;;;;;;;;;5070046;28;20688;-86
2021/06/20 11:18:34;;;;;;;1.35;0.95;;;;;;;;;;5070104;28;20643;-86
2021/06/20 11:21:03;;;;;;;1.27;1.13;;;;;;;;;;5070019;28;20189;-86
2021/06/20 11:23:31;;;;;;;1.30;1.20;;;;;;;;;;5070752;28;20185;-86
2021/06/20 11:26:00;;;;;;;1.20;1.20;;;;;;;;;;5070539;28;20194;-86
2021/06/20 11:28:28;;;;;;;1.60;1.50;;;;;;;;;;5070401;28;20348;-87
2021/06/20 11:31:09;;;;;;;1.50;1.40;;;;;;;;;;5070928;28;20196;-86
2021/06/20 11:33:37;;;;;;;1.30;1.30;;;;;;;;;;5071777;28;20191;-86
2021/06/20 11:36:06;;;;;;;1.73;1.63;;;;;;;;;;5074299;28;20205;-86
2021/06/20 11:38:37;;;;;;;1.30;1.23;;;;;;;;;;5074084;28;20245;-86
2021/06/20 11:41:17;;;;;;;1.20;1.08;;;;;;;;;;5073660;28;20204;-86
2021/06/20 11:43:59;;;;;;;1.17;1.17;;;;;;;;;;5074174;28;20208;-86
2021/06/20 11:46:28;;;;;;;1.52;1.35;;;;;;;;;;5074104;28;20211;-86
2021/06/20 11:48:59;;;;;;;2.05;1.25;;;;;;;;;;5074415;28;20256;-87
2021/06/20 11:51:34;;;;;;;1.30;1.20;;;;;;;;;;5075105;28;20211;-86
2021/06/20 11:54:13;;;;;;;1.55;1.45;;;;;;;;;;5074380;28;20208;-87
2021/06/20 11:56:42;;;;;;;1.20;1.10;;;;;;;;;;5074559;28;20220;-87
2021/06/20 11:59:10;;;;;;;0.85;0.85;;;;;;;;;;5073804;28;20225;-87
2021/06/20 12:01:47;;;;;;;0.90;0.90;;;;;;;;;;5073767;28;20192;-86
2021/06/20 12:04:18;;;;;;;1.65;1.55;;;;;;;;;;5074219;28;20246;-87
2021/06/20 12:06:48;;;;;;;1.30;1.30;;;;;;;;;;5073485;28;20646;-85
2021/06/20 12:09:17;;;;;;;1.15;0.90;;;;;;;;;;5073429;28;20233;-86
2021/06/20 12:11:45;;;;;;;1.15;1.15;;;;;;;;;;5074065;28;20185;-86
2021/06/20 12:14:24;;;;;;;0.93;0.93;;;;;;;;;;5073113;28;20292;-87
2021/06/20 12:16:53;;;;;;;0.90;0.90;;;;;;;;;;5073884;28;20205;-87
2021/06/20 12:19:22;;;;;;;1.23;1.13;;;;;;;;;;5073166;28;20220;-86
2021/06/20 12:22:03;;;;;;;1.00;1.00;;;;;;;;;;5072827;28;20642;-86
2021/06/20 12:24:37;;;;;;;1.23;1.23;;;;;;;;;;5073969;28;20635;-86
2021/06/20 12:27:06;;;;;;;1.13;1.13;;;;;;;;;;5073942;28;20188;-87
2021/06/20 12:29:35;;;;;;;1.30;1.20;;;;;;;;;;5073340;28;20224;-87
2021/06/20 12:32:05;;;;;;;1.73;1.38;;;;;;;;;;5073472;28;20182;-86
2021/06/20 12:34:47;;;;;;;1.42;1.23;;;;;;;;;;5073157;28;20209;-86
2021/06/20 12:37:22;;;;;;;1.40;1.30;;;;;;;;;;5073146;28;20627;-87
2021/06/20 12:39:54;;;;;;;1.63;1.25;;;;;;;;;;5073801;28;20216;-87
2021/06/20 12:42:23;;;;;;;1.00;1.00;;;;;;;;;;5072894;28;20201;-86
2021/06/20 12:44:54;;;;;;;1.40;1.30;;;;;;;;;;5072644;28;20215;-87
2021/06/20 12:47:31;;;;;;;1.48;1.38;;;;;;;;;;5073220;28;20177;-86
2021/06/20 12:49:59;;;;;;;1.45;1.35;;;;;;;;;;5073253;28;20323;-87
2021/06/20 12:52:31;;;;;;;1.05;1.05;;;;;;;;;;5073347;28;20185;-87
2021/06/20 12:54:59;;;;;;;1.20;1.15;;;;;;;;;;5073437;28;20201;-86
2021/06/20 12:57:30;;;;;;;1.40;1.30;;;;;;;;;;5072926;28;20738;-86
2021/06/20 13:00:09;;;;;;;1.50;1.40;;;;;;;;;;5072327;28;20587;-86
2021/06/20 13:02:37;;;;;;;1.40;1.30;;;;;;;;;;5055072;28;20207;-87
2021/06/20 13:05:06;;;;;;;1.98;1.13;;;;;;;;;;5072849;28;20187;-87
2021/06/20 13:07:38;;;;;;;2.40;2.10;;;;;;;;;;5072865;28;20219;-86
2021/06/20 13:10:10;;;;;;;1.42;1.42;;;;;;;;;;5072693;28;20713;-87
2021/06/20 13:12:38;;;;;;;1.60;1.50;;;;;;;;;;5073418;28;20192;-87
2021/06/20 13:15:11;;;;;;;1.48;1.27;;;;;;;;;;5073236;28;20267;-87
2021/06/20 13:17:39;;;;;;;1.83;1.73;;;;;;;;;;5073082;28;20530;-87
2021/06/20 13:20:09;;;;;;;1.90;1.80;;;;;;;;;;5073097;28;20223;-87
2021/06/20 13:22:38;;;;;;;1.50;1.40;;;;;;;;;;5073451;28;20189;-88
2021/06/20 13:25:07;;;;;;;1.52;1.42;;;;;;;;;;5073532;28;20181;-87
2021/06/20 13:27:34;;;;;;;1.20;1.20;;;;;;;;;;5073734;28;20177;-87
2021/06/20 13:30:03;;;;;;;1.40;1.35;;;;;;;;;;5072774;28;20216;-87
2021/06/20 13:32:30;;;;;;;2.22;1.60;;;;;;;;;;5072726;28;20208;-87
2021/06/20 13:34:58;;;;;;;2.22;2.03;;;;;;;;;;5072905;28;20255;-87
2021/06/20 13:37:25;;;;;;;3.17;1.80;;;;;;;;;;5072808;28;20663;-87
2021/06/20 13:39:54;;;;;;;1.67;1.58;;;;;;;;;;5072644;28;20217;-86
2021/06/20 13:42:22;;;;;;;2.10;1.85;;;;;;;;;;5072452;28;20203;-87
2021/06/20 13:44:49;;;;;;;1.50;1.40;;;;;;;;;;5072566;28;20193;-87
2021/06/20 13:47:17;;;;;;;3.20;2.20;;;;;;;;;;5072702;28;20205;-87
2021/06/20 13:49:44;;;;;;;1.50;1.40;;;;;;;;;;5072847;28;20527;-87
2021/06/20 13:52:12;;;;;;;1.92;1.77;;;;;;;;;;5073294;28;20602;-87
2021/06/20 13:54:39;;;;;;;1.42;1.33;;;;;;;;;;5072988;28;20184;-87
2021/06/20 13:57:08;;;;;;;2.03;1.85;;;;;;;;;;5072028;28;20197;-87
2021/06/20 13:59:36;;;;;;;1.80;1.70;;;;;;;;;;5072308;28;20695;-87
2021/06/20 14:02:04;;;;;;;1.50;1.40;;;;;;;;;;5072603;28;20277;-87
2021/06/20 14:04:31;;;;;;;1.38;1.27;;;;;;;;;;5072799;28;20551;-87
2021/06/20 14:06:59;;;;;;;1.50;1.40;;;;;;;;;;5072886;28;20275;-87
2021/06/20 14:09:26;;;;;;;1.40;1.20;;;;;;;;;;5072478;28;20224;-88
2021/06/20 14:11:54;;;;;;;1.55;1.45;;;;;;;;;;5072867;28;20239;-87
2021/06/20 14:14:22;;;;;;;2.63;1.98;;;;;;;;;;5072527;28;20199;-88
2021/06/20 14:16:50;;;;;;;1.80;1.70;;;;;;;;;;5072166;28;20188;-87
2021/06/20 14:19:17;;;;;;;1.80;1.42;;;;;;;;;;5072214;28;20249;-88
2021/06/20 14:21:47;;;;;;;1.30;1.30;;;;;;;;;;5072211;28;20636;-88
2021/06/20 14:24:15;;;;;;;2.20;2.00;;;;;;;;;;5072174;28;20233;-88
2021/06/20 14:26:42;;;;;;;2.80;2.60;;;;;;;;;;5072550;28;20276;-88
2021/06/20 14:29:11;;;;;;;1.33;1.30;;;;;;;;;;5072292;28;20227;-87
2021/06/20 14:31:40;;;;;;;1.40;1.30;;;;;;;;;;5072100;28;20711;-87
2021/06/20 14:34:09;;;;;;;1.50;1.48;;;;;;;;;;5072122;28;20580;-88
2021/06/20 14:36:37;;;;;;;1.73;1.63;;;;;;;;;;5072362;28;20189;-88
2021/06/20 14:39:06;;;;;;;1.60;1.50;;;;;;;;;;5071931;28;20845;-88
2021/06/20 14:41:34;;;;;;;2.28;1.48;;;;;;;;;;5073563;28;20562;-87
2021/06/20 14:44:01;;;;;;;2.08;1.92;;;;;;;;;;5072320;28;20185;-88
2021/06/20 14:46:29;;;;;;;1.63;1.52;;;;;;;;;;5072079;28;20185;-87
2021/06/20 14:48:58;;;;;;;2.25;1.83;;;;;;;;;;5072204;28;20226;-87
2021/06/20 14:51:25;;;;;;;1.83;1.73;;;;;;;;;;5072090;28;20296;-88
2021/06/20 14:53:53;;;;;;;1.35;1.30;;;;;;;;;;5072601;28;20272;-87
2021/06/20 14:56:20;;;;;;;1.60;1.50;;;;;;;;;;5071805;28;20722;-87